Time;durP1;ratioP1;P1;durP2;ratioP2;P2;SDS_P1;SDS_P2;PMS_P1;PMS_P2;Temp;Humidity;BMP_temperature;BMP_pressure;BME280_temperature;BME280_humidity;BME280_pressure;Samples;Min_cycle;Max_cycle;Signal;HPM_P1;HPM_P2
2024/03/02 00:01:27;;;;;;;14.93;9.63;;;;;;;5.34;100.00;99245.69;4942078;28;20035;-70
2024/03/02 00:03:55;;;;;;;13.88;9.38;;;;;;;5.40;100.00;99250.66;4982893;28;20190;-68
2024/03/02 00:06:24;;;;;;;13.20;9.38;;;;;;;5.42;100.00;99254.91;4985726;28;20042;-66
2024/03/02 00:08:58;;;;;;;13.95;9.15;;;;;;;5.44;100.00;99253.09;4985459;28;20058;-68
2024/03/02 00:11:28;;;;;;;14.10;9.02;;;;;;;5.33;100.00;99222.97;4981626;28;20047;-70
2024/03/02 00:14:00;;;;;;;14.30;9.50;;;;;;;5.42;100.00;99248.81;4967994;28;20058;-70
2024/03/02 00:16:32;;;;;;;13.63;9.77;;;;;;;5.38;100.00;99245.47;4964419;28;20389;-70
2024/03/02 00:19:05;;;;;;;14.90;10.00;;;;;;;5.34;100.00;99246.53;4956748;28;20477;-69
2024/03/02 00:21:35;;;;;;;14.57;10.10;;;;;;;5.28;100.00;99241.56;4987152;28;20066;-68
2024/03/02 00:24:14;;;;;;;;;;;;;;;5.29;100.00;99246.72;4980606;28;20729;-68
2024/03/02 00:26:46;;;;;;;15.40;10.20;;;;;;;5.24;100.00;99238.19;4979784;28;19926;-71
2024/03/02 00:29:16;;;;;;;13.45;9.35;;;;;;;5.22;100.00;99229.53;4979685;28;20038;-68
2024/03/02 00:31:46;;;;;;;14.95;9.82;;;;;;;5.22;100.00;99226.06;4980630;28;20079;-68
2024/03/02 00:34:16;;;;;;;16.50;10.48;;;;;;;5.16;100.00;99226.34;4976704;28;20052;-69
2024/03/02 00:36:45;;;;;;;19.20;10.10;;;;;;;5.15;100.00;99230.75;4978428;28;20038;-69
2024/03/02 00:39:16;;;;;;;16.63;11.07;;;;;;;5.17;100.00;99228.91;4989312;28;20119;-67
2024/03/02 00:41:47;;;;;;;16.25;11.60;;;;;;;5.15;100.00;99225.50;4982859;28;20077;-71
2024/03/02 00:44:34;;;;;;;15.85;10.63;;;;;;;5.08;100.00;99218.78;4979364;28;20067;-69
2024/03/02 00:47:03;;;;;;;16.55;11.35;;;;;;;5.01;100.00;99230.47;4979609;28;20035;-70
2024/03/02 00:49:31;;;;;;;17.17;11.00;;;;;;;4.89;100.00;99217.88;4983781;28;20103;-69
2024/03/02 00:51:59;;;;;;;14.82;10.90;;;;;;;4.89;100.00;99228.34;4985105;28;20035;-71
2024/03/02 00:54:29;;;;;;;15.82;11.30;;;;;;;4.89;100.00;99228.34;4975343;28;20173;-69
2024/03/02 00:56:59;;;;;;;16.52;11.63;;;;;;;4.89;100.00;99228.34;4971574;28;20054;-66
2024/03/02 00:59:35;;;;;;;17.17;11.75;;;;;;;4.92;100.00;99236.97;4971543;28;20047;-71
2024/03/02 01:02:05;;;;;;;18.00;11.77;;;;;;;4.94;100.00;99242.13;4976340;28;20058;-70
2024/03/02 01:04:33;;;;;;;16.25;10.50;;;;;;;4.94;100.00;99236.91;4988935;28;20057;-70
2024/03/02 01:07:02;;;;;;;16.50;11.48;;;;;;;4.92;100.00;99238.72;4969118;28;20042;-70
2024/03/02 01:09:30;;;;;;;15.75;11.13;;;;;;;4.86;100.00;99245.09;4954452;28;20043;-69
2024/03/02 01:11:58;;;;;;;17.45;11.23;;;;;;;4.79;100.00;99248.03;4960743;28;20108;-70
2024/03/02 01:14:29;;;;;;;15.65;11.32;;;;;;;4.71;100.00;99250.13;4968774;28;20138;-70
2024/03/02 01:16:59;;;;;;;17.20;11.35;;;;;;;4.63;100.00;99258.31;4964399;28;20094;-69
2024/03/02 01:19:30;;;;;;;17.52;11.80;;;;;;;4.57;100.00;99259.41;4967387;28;20054;-70
2024/03/02 01:21:59;;;;;;;17.27;11.67;;;;;;;4.55;100.00;99261.25;4988149;28;20049;-69
2024/03/02 01:24:30;;;;;;;16.05;11.55;;;;;;;4.54;100.00;99256.94;4986757;28;20839;-71
2024/03/02 01:26:58;;;;;;;15.63;11.05;;;;;;;4.56;100.00;99262.09;4970125;28;20125;-68
2024/03/02 01:29:28;;;;;;;13.77;10.60;;;;;;;4.56;100.00;99252.44;4966710;28;20051;-68
2024/03/02 01:31:58;;;;;;;16.00;11.30;;;;;;;4.58;100.00;99244.50;4955927;28;20050;-67
2024/03/02 01:34:27;;;;;;;16.70;10.55;;;;;;;4.56;100.00;99246.38;4985799;28;20635;-70
2024/03/02 01:36:58;;;;;;;14.60;10.20;;;;;;;4.56;100.00;99247.19;4981695;28;20186;-70
2024/03/02 01:39:26;;;;;;;17.20;11.88;;;;;;;4.56;100.00;99236.72;4967972;28;20748;-70
2024/03/02 01:41:54;;;;;;;18.30;11.82;;;;;;;4.59;100.00;99233.13;4987759;28;20049;-70
2024/03/02 01:44:23;;;;;;;16.80;11.18;;;;;;;4.59;100.00;99240.97;4968697;28;20059;-70
2024/03/02 01:46:51;;;;;;;18.83;11.88;;;;;;;4.62;100.00;99234.75;4968768;28;20689;-69
2024/03/02 01:49:24;;;;;;;15.82;11.32;;;;;;;4.63;100.00;99236.47;4947848;28;20057;-68
2024/03/02 01:51:52;;;;;;;17.05;11.48;;;;;;;4.64;100.00;99236.41;4951796;28;20046;-70
2024/03/02 01:54:23;;;;;;;17.58;11.38;;;;;;;4.61;100.00;99226.03;4988787;28;20050;-70
2024/03/02 01:56:51;;;;;;;17.20;11.68;;;;;;;4.61;100.00;99214.69;4967504;28;20050;-67
2024/03/02 01:59:20;;;;;;;17.42;11.85;;;;;;;4.65;100.00;99218.91;4972824;28;20490;-67
2024/03/02 02:01:48;;;;;;;19.05;12.05;;;;;;;4.65;100.00;99222.38;5009016;28;20045;-69
2024/03/02 02:04:21;;;;;;;17.02;12.07;;;;;;;4.61;100.00;99207.69;5002522;28;20046;-65
2024/03/02 02:06:50;;;;;;;18.60;12.88;;;;;;;4.59;100.00;99202.50;4992051;28;20042;-71
2024/03/02 02:09:18;;;;;;;17.50;12.20;;;;;;;4.59;100.00;99199.88;4965921;28;20050;-70
2024/03/02 02:11:47;;;;;;;16.75;11.75;;;;;;;4.57;100.00;99193.00;4976902;28;20106;-66
2024/03/02 02:14:17;;;;;;;18.35;12.57;;;;;;;4.54;100.00;99194.00;4964105;28;20139;-70
2024/03/02 02:16:45;;;;;;;19.13;12.15;;;;;;;4.52;100.00;99193.22;4975337;28;20811;-69
2024/03/02 02:19:13;;;;;;;18.65;12.95;;;;;;;4.48;100.00;99196.88;4969277;28;20059;-71
2024/03/02 02:21:44;;;;;;;18.05;13.32;;;;;;;4.47;100.00;99191.69;4998980;28;20126;-65
2024/03/02 02:24:13;;;;;;;17.38;12.55;;;;;;;4.44;100.00;99184.78;4970276;28;20058;-70
2024/03/02 02:26:41;;;;;;;18.65;12.95;;;;;;;4.43;100.00;99188.31;4976406;28;20403;-68
2024/03/02 02:29:10;;;;;;;22.10;14.05;;;;;;;4.41;100.00;99184.91;4967408;28;20039;-70
2024/03/02 02:31:39;;;;;;;21.30;13.68;;;;;;;4.37;100.00;99188.59;4972325;28;20098;-72
2024/03/02 02:34:07;;;;;;;20.70;13.68;;;;;;;4.38;100.00;99192.06;4987709;28;20034;-66
2024/03/02 02:36:38;;;;;;;19.73;14.20;;;;;;;4.30;100.00;99181.88;4999653;28;20039;-66
2024/03/02 02:39:10;;;;;;;15.88;12.05;;;;;;;4.26;100.00;99179.44;5000366;28;20077;-70
2024/03/02 02:41:38;;;;;;;18.40;13.35;;;;;;;4.29;100.00;99195.06;4989468;28;20039;-68
2024/03/02 02:44:07;;;;;;;22.20;13.90;;;;;;;4.31;100.00;99194.09;5001351;28;20078;-70
2024/03/02 02:46:38;;;;;;;18.63;13.07;;;;;;;4.23;100.00;99183.94;5005571;28;20035;-68
2024/03/02 02:49:07;;;;;;;19.40;12.90;;;;;;;4.24;100.00;99192.63;4992978;28;20043;-67
2024/03/02 02:51:37;;;;;;;19.55;13.32;;;;;;;4.09;100.00;99175.75;4999835;28;20053;-67
2024/03/02 02:54:05;;;;;;;18.45;13.43;;;;;;;4.12;100.00;99186.09;4970680;28;20050;-68
2024/03/02 02:56:34;;;;;;;19.67;13.52;;;;;;;4.05;100.00;99181.19;4968687;28;20050;-69
2024/03/02 02:59:02;;;;;;;19.48;12.85;;;;;;;4.03;100.00;99181.25;4961072;28;20043;-68
2024/03/02 03:01:32;;;;;;;17.77;12.82;;;;;;;3.96;100.00;99173.66;4965022;28;20038;-70
2024/03/02 03:04:01;;;;;;;20.43;14.23;;;;;;;3.94;100.00;99178.13;4968196;28;20057;-70
2024/03/02 03:06:29;;;;;;;21.95;15.57;;;;;;;3.91;100.00;99178.25;4977466;28;20049;-68
2024/03/02 03:08:57;;;;;;;21.67;14.90;;;;;;;3.86;100.00;99163.56;4962454;28;20082;-73
2024/03/02 03:11:26;;;;;;;20.23;14.68;;;;;;;3.92;100.00;99174.72;4979968;28;20079;-69
2024/03/02 03:13:57;;;;;;;20.15;14.23;;;;;;;3.94;100.00;99162.41;4968380;28;20127;-69
2024/03/02 03:16:25;;;;;;;20.83;14.18;;;;;;;3.93;100.00;99165.97;4988602;28;20039;-65
2024/03/02 03:18:54;;;;;;;24.02;16.13;;;;;;;3.94;100.00;99172.88;4986975;28;20113;-67
2024/03/02 03:21:23;;;;;;;22.50;15.13;;;;;;;3.95;100.00;99177.19;4993746;28;20045;-68
2024/03/02 03:23:51;;;;;;;21.08;15.35;;;;;;;3.94;100.00;99165.88;4993539;28;20106;-68
2024/03/02 03:26:19;;;;;;;21.95;15.10;;;;;;;3.96;100.00;99165.81;4984956;28;20057;-70
2024/03/02 03:28:47;;;;;;;22.55;15.50;;;;;;;3.88;100.00;99166.13;4978958;28;20613;-67
2024/03/02 03:31:17;;;;;;;24.83;16.52;;;;;;;3.93;100.00;99176.44;4971934;28;20043;-68
2024/03/02 03:33:46;;;;;;;;;;;;;;;3.92;100.00;99169.50;5007670;28;20054;-67
2024/03/02 03:36:19;;;;;;;23.48;15.57;;;;;;;3.90;100.00;99160.84;4992559;28;19930;-68
2024/03/02 03:38:50;;;;;;;23.48;15.77;;;;;;;3.90;100.00;99160.84;4971029;28;20661;-70
2024/03/02 03:41:20;;;;;;;24.50;16.15;;;;;;;3.88;100.00;99155.66;4972525;28;20105;-69
2024/03/02 03:43:48;;;;;;;22.85;15.43;;;;;;;3.88;100.00;99153.03;4966179;28;20134;-68
2024/03/02 03:46:19;;;;;;;22.80;16.88;;;;;;;3.90;100.00;99164.31;4967910;28;20054;-68
2024/03/02 03:48:47;;;;;;;24.08;16.90;;;;;;;3.89;100.00;99162.59;4964877;28;20050;-67
2024/03/02 03:51:15;;;;;;;22.30;15.80;;;;;;;3.88;100.00;99163.53;4981095;28;20051;-68
2024/03/02 03:53:43;;;;;;;28.50;18.17;;;;;;;3.88;100.00;99174.00;4968414;28;20445;-67
2024/03/02 03:56:13;;;;;;;25.75;17.48;;;;;;;3.84;100.00;99181.09;4963589;28;20426;-68
2024/03/02 03:58:43;;;;;;;27.75;18.05;;;;;;;3.87;100.00;99188.84;4965347;28;20043;-68
2024/03/02 04:01:14;;;;;;;23.25;16.38;;;;;;;3.84;100.00;99172.41;4965196;28;20047;-70
2024/03/02 04:03:45;;;;;;;23.85;16.20;;;;;;;3.82;100.00;99185.53;4967731;28;20043;-69
2024/03/02 04:06:17;;;;;;;24.00;15.98;;;;;;;3.72;100.00;99170.25;4965337;28;20267;-68
2024/03/02 04:08:46;;;;;;;24.17;15.38;;;;;;;3.64;100.00;99175.78;4961271;28;20094;-68
2024/03/02 04:11:15;;;;;;;22.40;14.18;;;;;;;3.54;100.00;99156.13;4968584;28;20035;-68
2024/03/02 04:13:44;;;;;;;25.17;16.20;;;;;;;3.62;100.00;99161.88;4968377;28;20047;-70
2024/03/02 04:16:14;;;;;;;22.47;13.50;;;;;;;3.65;100.00;99159.16;4974089;28;20126;-69
2024/03/02 04:18:44;;;;;;;24.48;16.23;;;;;;;3.70;100.00;99165.09;4968875;28;20471;-67
2024/03/02 04:21:12;;;;;;;28.95;18.33;;;;;;;3.70;100.00;99165.09;4955345;28;20047;-70
2024/03/02 04:23:41;;;;;;;26.48;17.48;;;;;;;3.73;100.00;99171.97;4955918;28;20050;-69
2024/03/02 04:26:09;;;;;;;27.52;18.33;;;;;;;3.74;100.00;99165.81;4969391;28;20053;-70
2024/03/02 04:28:37;;;;;;;25.95;16.85;;;;;;;3.75;100.00;99178.84;4979359;28;20050;-67
2024/03/02 04:31:05;;;;;;;22.20;15.75;;;;;;;3.76;100.00;99169.25;4989802;28;20043;-69
2024/03/02 04:33:37;;;;;;;25.48;16.80;;;;;;;3.71;100.00;99169.41;4971685;28;20054;-69
2024/03/02 04:36:09;;;;;;;27.50;17.70;;;;;;;3.71;100.00;99176.41;4974270;28;20039;-68
2024/03/02 04:38:37;;;;;;;25.55;16.35;;;;;;;3.70;100.00;99174.69;4967685;28;20059;-68
2024/03/02 04:41:06;;;;;;;23.35;15.73;;;;;;;3.66;100.00;99168.72;4968532;28;20038;-70
2024/03/02 04:43:35;;;;;;;25.55;16.40;;;;;;;3.64;100.00;99181.00;4983471;28;20082;-68
2024/03/02 04:46:07;;;;;;;27.25;16.52;;;;;;;3.59;100.00;99177.75;4968908;28;20138;-69
2024/03/02 04:48:36;;;;;;;24.05;15.85;;;;;;;3.58;100.00;99183.03;4964471;28;20523;-68
2024/03/02 04:51:05;;;;;;;22.92;16.00;;;;;;;3.53;100.00;99181.44;4968194;28;20045;-69
2024/03/02 04:53:35;;;;;;;20.55;14.75;;;;;;;3.49;100.00;99182.44;4971274;28;20050;-71
2024/03/02 04:56:27;;;;;;;25.17;17.33;;;;;;;3.37;100.00;99163.75;4973325;28;20046;-69
2024/03/02 04:58:56;;;;;;;26.80;16.95;;;;;;;3.45;100.00;99187.88;4994164;28;20026;-66
2024/03/02 05:01:29;;;;;;;26.67;16.77;;;;;;;3.40;100.00;99179.34;4969527;28;20039;-70
2024/03/02 05:03:57;;;;;;;26.58;17.13;;;;;;;3.38;100.00;99183.78;5013670;28;20022;-66
2024/03/02 05:06:25;;;;;;;27.38;17.25;;;;;;;3.37;100.00;99182.06;4993605;28;20051;-68
2024/03/02 05:08:56;;;;;;;27.08;16.98;;;;;;;3.38;100.00;99183.78;4993343;28;20050;-67
2024/03/02 05:14:10;;;;;;;28.42;17.95;;;;;;;3.31;100.00;99177.03;4986011;28;20034;-70
2024/03/02 05:16:40;;;;;;;26.65;16.98;;;;;;;3.31;100.00;99182.28;4968322;28;20423;-69
2024/03/02 05:19:09;;;;;;;29.85;18.55;;;;;;;3.30;100.00;99191.06;4961271;28;20046;-67
2024/03/02 05:21:37;;;;;;;28.48;17.85;;;;;;;3.31;100.00;99195.34;4969051;28;20113;-70
2024/03/02 05:24:10;;;;;;;27.58;18.08;;;;;;;3.34;100.00;99200.47;5001155;28;20394;-68
2024/03/02 05:26:39;;;;;;;31.42;19.25;;;;;;;3.35;100.00;99192.56;4992752;28;20154;-67
2024/03/02 05:29:11;;;;;;;28.08;19.23;;;;;;;3.36;100.00;99196.91;4988680;28;20578;-70
2024/03/02 05:31:39;;;;;;;27.85;18.35;;;;;;;3.34;100.00;99203.09;4969479;28;20034;-68
2024/03/02 05:34:10;;;;;;;30.75;19.50;;;;;;;3.32;100.00;99211.00;4972479;28;20035;-69
2024/03/02 05:36:38;;;;;;;28.23;18.98;;;;;;;3.28;100.00;99208.56;4981447;28;20067;-69
2024/03/02 05:39:09;;;;;;;29.60;17.73;;;;;;;3.25;100.00;99203.44;4955521;28;20055;-68
2024/03/02 05:41:37;;;;;;;29.33;18.98;;;;;;;3.26;100.00;99218.25;4985086;28;20058;-70
2024/03/02 05:44:06;;;;;;;31.92;20.10;;;;;;;3.23;100.00;99216.56;4978789;28;20034;-70
2024/03/02 05:46:34;;;;;;;31.52;19.45;;;;;;;3.19;100.00;99209.75;4974962;28;20400;-69
2024/03/02 05:49:07;;;;;;;28.75;18.73;;;;;;;3.21;100.00;99220.16;4961467;28;20061;-66
2024/03/02 05:51:35;;;;;;;31.35;18.80;;;;;;;3.15;100.00;99213.38;4950639;28;20574;-71
2024/03/02 05:54:04;;;;;;;29.63;19.00;;;;;;;3.17;100.00;99217.63;4970990;28;20419;-67
2024/03/02 05:56:34;;;;;;;29.58;18.92;;;;;;;3.19;100.00;99220.22;4968429;28;20145;-70
2024/03/02 05:59:12;;;;;;;30.83;19.42;;;;;;;3.18;100.00;99227.19;4968054;28;20047;-70
2024/03/02 06:01:43;;;;;;;28.40;18.73;;;;;;;3.15;100.00;99219.44;4983977;28;20500;-69
2024/03/02 06:04:12;;;;;;;32.10;19.70;;;;;;;3.17;100.00;99230.72;4981734;28;20038;-71
2024/03/02 06:06:41;;;;;;;33.97;20.35;;;;;;;3.22;100.00;99232.31;4985489;28;20119;-70
2024/03/02 06:09:12;;;;;;;30.50;20.52;;;;;;;3.29;100.00;99237.31;4966274;28;20495;-70
2024/03/02 06:11:44;;;;;;;32.33;19.67;;;;;;;3.34;100.00;99232.72;4966529;28;20050;-70
2024/03/02 06:14:13;;;;;;;34.85;21.05;;;;;;;3.39;100.00;99232.56;4969270;28;20039;-70
2024/03/02 06:16:41;;;;;;;28.98;19.15;;;;;;;3.44;100.00;99241.13;4969141;28;20073;-70
2024/03/02 06:19:11;;;;;;;30.50;19.40;;;;;;;3.47;100.00;99236.59;4957255;28;20043;-66
2024/03/02 06:21:40;;;;;;;35.50;20.73;;;;;;;3.47;100.00;99233.13;4980781;28;20047;-70
2024/03/02 06:24:08;;;;;;;33.17;20.67;;;;;;;3.50;100.00;99246.13;4983545;28;20050;-70
2024/03/02 06:26:35;;;;;;;32.15;19.73;;;;;;;3.50;100.00;99246.13;4987306;28;20047;-65
2024/03/02 06:29:05;;;;;;;29.75;20.17;;;;;;;3.54;100.00;99245.09;4990851;28;20039;-64
2024/03/02 06:31:36;;;;;;;32.03;20.38;;;;;;;3.58;100.00;99249.31;5003908;28;20114;-67
2024/03/02 06:34:05;;;;;;;31.83;20.67;;;;;;;3.63;100.00;99249.13;4986680;28;20166;-70
2024/03/02 06:36:35;;;;;;;35.83;21.15;;;;;;;3.69;100.00;99256.78;4982952;28;20038;-70
2024/03/02 06:39:05;;;;;;;32.70;20.83;;;;;;;3.68;100.00;99250.69;4966322;28;20483;-69
2024/03/02 06:41:33;;;;;;;33.97;21.25;;;;;;;3.80;100.00;99257.22;4965884;28;20050;-70
2024/03/02 06:44:02;;;;;;;32.40;21.02;;;;;;;3.85;100.00;99256.13;4965768;28;20042;-70
2024/03/02 06:46:32;;;;;;;35.05;20.95;;;;;;;3.87;100.00;99250.84;4979076;28;20071;-68
2024/03/02 06:49:02;;;;;;;32.50;20.85;;;;;;;3.91;100.00;99254.22;4965157;28;20047;-69
2024/03/02 06:51:33;;;;;;;35.97;22.30;;;;;;;3.92;100.00;99253.31;4964517;28;20133;-70
2024/03/02 06:54:01;;;;;;;32.92;21.65;;;;;;;3.92;100.00;99250.69;4971216;28;20057;-69
2024/03/02 06:56:30;;;;;;;31.40;20.65;;;;;;;3.95;100.00;99258.41;4967061;28;20035;-70
2024/03/02 06:58:58;;;;;;;31.23;19.60;;;;;;;4.00;100.00;99254.69;4965170;28;20116;-69
2024/03/02 07:01:27;;;;;;;39.00;22.08;;;;;;;4.07;100.00;99247.47;4953407;28;20402;-69
2024/03/02 07:03:57;;;;;;;33.63;21.42;;;;;;;4.09;100.00;99245.66;4977169;28;20396;-70
2024/03/02 07:06:25;;;;;;;34.58;20.60;;;;;;;4.10;100.00;99250.81;4981714;28;20046;-69
2024/03/02 07:08:53;;;;;;;31.00;20.02;;;;;;;4.18;100.00;99250.50;4982314;28;20798;-68
2024/03/02 07:11:21;;;;;;;32.53;20.27;;;;;;;4.19;100.00;99263.56;4963365;28;20126;-70
2024/03/02 07:13:49;;;;;;;33.50;21.33;;;;;;;4.17;100.00;99269.78;4964301;28;20051;-68
2024/03/02 07:16:27;;;;;;;29.92;19.50;;;;;;;4.11;100.00;99259.50;4981697;28;20081;-68
2024/03/02 07:18:58;;;;;;;33.47;20.55;;;;;;;4.14;100.00;99265.50;4981707;28;20050;-68
2024/03/02 07:21:28;;;;;;;33.65;20.83;;;;;;;4.15;100.00;99266.34;4983399;28;20030;-66
2024/03/02 07:23:57;;;;;;;33.35;21.38;;;;;;;4.05;100.00;99249.28;4995070;28;20050;-67
2024/03/02 07:26:26;;;;;;;35.15;22.05;;;;;;;4.14;100.00;99265.50;5007646;28;20056;-67
2024/03/02 07:28:57;;;;;;;31.75;20.13;;;;;;;4.13;100.00;99274.25;5006641;28;20061;-68
2024/03/02 07:31:25;;;;;;;34.42;20.88;;;;;;;4.14;100.00;99280.34;4991435;28;20286;-66
2024/03/02 07:33:53;;;;;;;31.73;20.70;;;;;;;4.14;100.00;99281.22;4995829;28;20082;-70
2024/03/02 07:36:23;;;;;;;32.80;21.90;;;;;;;4.16;100.00;99279.41;4967974;28;20047;-68
2024/03/02 07:38:52;;;;;;;37.20;22.75;;;;;;;4.15;100.00;99276.81;4996014;28;20023;-66
2024/03/02 07:41:21;;;;;;;36.05;22.35;;;;;;;4.19;100.00;99281.91;4985265;28;20038;-68
2024/03/02 07:43:50;;;;;;;34.38;21.73;;;;;;;4.22;100.00;99266.06;4991799;28;20115;-66
2024/03/02 07:46:19;;;;;;;35.92;22.20;;;;;;;4.37;100.00;99272.47;4988849;28;20074;-69
2024/03/02 07:48:51;;;;;;;35.45;22.55;;;;;;;4.51;100.00;99275.38;4989613;28;20046;-66
2024/03/02 07:51:19;;;;;;;36.45;22.65;;;;;;;4.65;100.00;99279.22;5005606;28;20041;-67
2024/03/02 07:53:51;;;;;;;37.42;24.15;;;;;;;4.81;100.00;99285.53;4995334;28;20098;-65
2024/03/02 07:56:22;;;;;;;34.15;21.92;;;;;;;4.96;100.00;99284.06;5008739;28;20051;-68
2024/03/02 07:58:52;;;;;;;34.30;22.23;;;;;;;5.22;100.00;99295.16;5005477;28;20058;-66
2024/03/02 08:01:20;;;;;;;35.33;22.00;;;;;;;5.35;100.00;99290.25;4986115;28;20023;-66
2024/03/02 08:03:50;;;;;;;34.33;21.90;;;;;;;5.52;100.00;99294.75;4989929;28;20047;-64
2024/03/02 08:06:21;;;;;;;34.70;22.08;;;;;;;5.64;100.00;99288.97;5006402;28;20604;-68
2024/03/02 08:08:51;;;;;;;28.20;19.80;;;;;;;5.73;100.00;99288.53;4990040;28;20047;-69
2024/03/02 08:11:20;;;;;;;31.38;20.17;;;;;;;5.81;100.00;99288.22;4985031;28;20035;-68
2024/03/02 08:13:48;;;;;;;31.17;19.42;;;;;;;5.98;100.00;99288.34;4985222;28;20035;-68
2024/03/02 08:16:19;;;;;;;27.75;18.75;;;;;;;6.21;100.00;99284.63;4972366;28;20054;-66
2024/03/02 08:18:48;;;;;;;28.98;19.08;;;;;;;6.37;100.00;99292.66;4991051;28;20046;-70
2024/03/02 08:21:16;;;;;;;29.00;19.00;;;;;;;6.41;100.00;99287.19;4978043;28;20054;-69
2024/03/02 08:23:45;;;;;;;28.25;19.30;;;;;;;6.43;100.00;99293.22;4967710;28;20057;-69
2024/03/02 08:26:15;;;;;;;27.67;19.23;;;;;;;6.39;100.00;99290.81;4970188;28;20042;-70
2024/03/02 08:28:45;;;;;;;29.25;19.02;;;;;;;6.45;100.00;99285.25;4988680;28;20035;-67
2024/03/02 08:31:14;;;;;;;29.77;19.38;;;;;;;6.56;100.00;99294.34;5004603;28;20031;-67
2024/03/02 08:33:42;;;;;;;29.05;20.08;;;;;;;6.64;100.00;99286.06;4990762;28;20039;-67
2024/03/02 08:36:11;;;;;;;31.38;20.38;;;;;;;6.78;100.00;99290.63;4994955;28;20871;-70
2024/03/02 08:38:41;;;;;;;27.90;19.00;;;;;;;7.01;100.00;99303.53;5000601;28;20086;-71
2024/03/02 08:41:09;;;;;;;29.10;19.00;;;;;;;7.17;100.00;99311.50;4977540;28;20582;-71
2024/03/02 08:43:41;;;;;;;28.63;18.48;;;;;;;7.29;100.00;99306.47;4994568;28;20059;-68
2024/03/02 08:46:09;;;;;;;27.67;18.35;;;;;;;7.38;100.00;99310.44;4986186;28;20089;-69
2024/03/02 08:48:39;;;;;;;26.88;18.15;;;;;;;7.52;100.00;99312.34;4989333;28;20051;-67
2024/03/02 08:51:10;;;;;;;28.15;19.15;;;;;;;7.50;100.00;99304.53;4984117;28;20069;-67
2024/03/02 08:53:38;;;;;;;;;;;;;;;7.55;100.00;99309.56;4976576;28;20047;-70
2024/03/02 08:56:07;;;;;;;29.00;19.17;;;;;;;7.59;100.00;99317.22;4971757;28;20423;-69
2024/03/02 08:58:36;;;;;;;25.73;18.23;;;;;;;7.61;100.00;99317.13;4964821;28;20075;-69
2024/03/02 09:01:08;;;;;;;31.52;20.33;;;;;;;7.67;100.00;99311.56;4965724;28;20043;-69
2024/03/02 09:03:37;;;;;;;29.80;19.33;;;;;;;7.72;100.00;99310.38;4970567;28;20051;-69
2024/03/02 09:06:05;;;;;;;25.23;17.85;;;;;;;7.83;100.00;99306.34;4978710;28;20056;-69
2024/03/02 09:08:36;;;;;;;;;;;;;;;7.97;100.00;99304.66;4980469;28;20098;-69
2024/03/02 09:11:04;;;;;;;28.77;18.98;;;;;;;8.08;100.00;99301.44;4960806;28;19926;-67
2024/03/02 09:13:32;;;;;;;27.13;17.98;;;;;;;8.22;100.00;99305.97;4964593;28;20475;-70
2024/03/02 09:16:03;;;;;;;26.80;17.58;;;;;;;8.39;100.00;99319.97;4966969;28;20054;-69
2024/03/02 09:18:34;;;;;;;27.07;16.93;;;;;;;8.49;100.00;99317.69;4969893;28;20101;-71
2024/03/02 09:21:02;;;;;;;25.92;16.80;;;;;;;8.54;100.00;99315.63;4973046;28;20474;-71
2024/03/02 09:23:33;;;;;;;24.52;16.38;;;;;;;8.57;100.00;99310.19;4953653;28;20035;-70
2024/03/02 09:26:01;;;;;;;27.35;17.20;;;;;;;8.62;100.00;99302.88;4950127;28;20043;-71
2024/03/02 09:28:31;;;;;;;28.73;18.70;;;;;;;8.63;100.00;99294.00;4950292;28;20098;-71
2024/03/02 09:31:01;;;;;;;26.98;18.23;;;;;;;8.70;100.00;99295.34;4946343;28;20047;-71
2024/03/02 09:33:30;;;;;;;;;;;;;;;8.93;100.00;99299.31;4947187;28;20051;-70
2024/03/02 09:36:00;;;;;;;26.40;17.25;;;;;;;9.02;100.00;99290.00;4947766;28;19926;-70
2024/03/02 09:38:28;;;;;;;22.90;16.42;;;;;;;9.15;100.00;99288.34;4965668;28;20059;-71
2024/03/02 09:40:56;;;;;;;23.90;16.00;;;;;;;9.32;100.00;99296.13;4960332;28;20049;-69
2024/03/02 09:43:24;;;;;;;22.13;16.25;;;;;;;9.40;100.00;99285.13;4973446;28;20054;-71
2024/03/02 09:45:52;;;;;;;26.95;16.70;;;;;;;9.58;100.00;99291.97;4966376;28;20062;-71
2024/03/02 09:48:20;;;;;;;24.20;15.02;;;;;;;9.77;100.00;99294.31;4958278;28;20047;-71
2024/03/02 09:50:53;;;;;;;21.92;15.15;;;;;;;9.80;100.00;99299.41;4953565;28;20053;-69
2024/03/02 09:53:25;;;;;;;19.75;14.20;;;;;;;9.85;100.00;99284.97;4955857;28;20389;-69
2024/03/02 09:55:55;;;;;;;19.73;13.55;;;;;;;9.81;100.00;99291.38;4951195;28;20047;-70
2024/03/02 09:58:25;;;;;;;21.73;15.15;;;;;;;9.72;100.00;99293.75;4952744;28;20075;-69
2024/03/02 10:00:54;;;;;;;20.15;14.10;;;;;;;9.62;100.00;99288.16;4963190;28;20051;-70
2024/03/02 10:03:25;;;;;;;21.13;14.50;;;;;;;9.66;100.00;99288.84;4950145;28;20055;-71
2024/03/02 10:05:53;;;;;;;19.27;14.23;;;;;;;9.79;100.00;99292.41;4964858;28;20520;-70
2024/03/02 10:08:22;;;;;;;20.75;14.25;;;;;;;9.95;100.00;99287.03;4950366;28;20411;-71
2024/03/02 10:10:51;;;;;;;;;;;;;;;9.96;100.00;99264.94;4946817;28;20050;-69
2024/03/02 10:13:19;;;;;;;19.80;14.50;;;;;;;10.15;100.00;99274.28;4952272;28;19930;-70
2024/03/02 10:15:47;;;;;;;20.75;14.32;;;;;;;10.34;100.00;99270.50;4956993;28;20073;-72
2024/03/02 10:18:28;;;;;;;20.48;14.15;;;;;;;10.46;100.00;99267.06;4960855;28;20050;-71
2024/03/02 10:21:14;;;;;;;21.52;15.13;;;;;;;10.66;100.00;99279.88;4942772;28;20039;-68
2024/03/02 10:23:43;;;;;;;18.90;14.20;;;;;;;10.73;100.00;99275.88;4965872;28;20548;-70
2024/03/02 10:26:18;;;;;;;19.88;14.07;;;;;;;10.75;100.00;99267.81;4950962;28;20317;-69
2024/03/02 10:28:48;;;;;;;21.10;14.32;;;;;;;10.86;100.00;99270.63;4950486;28;20047;-72
2024/03/02 10:31:18;;;;;;;19.38;14.52;;;;;;;10.78;100.00;99270.28;4941975;28;20300;-70
2024/03/02 10:33:46;;;;;;;18.55;14.05;;;;;;;10.78;100.00;99268.47;4951234;28;20040;-71
2024/03/02 10:36:17;;;;;;;19.60;13.00;;;;;;;10.88;100.00;99268.72;4949594;28;20047;-70
2024/03/02 10:38:48;;;;;;;;;;;;;;;10.95;100.00;99259.41;4964232;28;20087;-71
2024/03/02 10:41:18;;;;;;;18.00;13.02;;;;;;;11.08;100.00;99262.09;4948209;28;19926;-68
2024/03/02 10:43:47;;;;;;;18.42;12.90;;;;;;;11.14;100.00;99248.44;4932496;29;20051;-70
2024/03/02 10:46:17;;;;;;;18.08;12.77;;;;;;;11.37;100.00;99260.97;4956911;28;20046;-72
2024/03/02 10:48:47;;;;;;;14.10;11.35;;;;;;;11.48;100.00;99253.16;4948807;28;20048;-69
2024/03/02 10:51:16;;;;;;;17.10;11.90;;;;;;;11.48;100.00;99247.84;4948583;28;20052;-69
2024/03/02 10:53:47;;;;;;;17.15;12.00;;;;;;;11.51;100.00;99239.66;4954046;28;20559;-71
2024/03/02 10:56:26;;;;;;;18.30;12.13;;;;;;;11.64;100.00;99238.84;4953983;28;20059;-72
2024/03/02 10:59:04;;;;;;;16.85;11.57;;;;;;;11.85;100.00;99234.69;4962369;28;20083;-71
2024/03/02 11:01:35;;;;;;;16.67;11.77;;;;;;;11.92;100.00;99235.97;4954333;28;20113;-72
2024/03/02 11:04:07;;;;;;;16.52;12.20;;;;;;;11.82;98.09;99233.09;4983076;28;20042;-68
2024/03/02 11:06:41;;;;;;;18.08;12.05;;;;;;;11.70;97.03;99241.03;4991554;28;20110;-69
2024/03/02 11:09:12;;;;;;;14.60;10.85;;;;;;;11.69;96.97;99242.00;4965417;28;20050;-71
2024/03/02 11:11:45;;;;;;;17.20;11.43;;;;;;;11.65;92.26;99228.09;4977501;28;20043;-70
2024/03/02 11:14:18;;;;;;;16.58;10.50;;;;;;;11.75;94.22;99233.63;4971115;28;20049;-70
2024/03/02 11:16:47;;;;;;;13.43;9.77;;;;;;;11.85;91.03;99234.69;4965571;28;20065;-70
2024/03/02 11:19:19;;;;;;;17.05;10.60;;;;;;;11.90;92.18;99232.56;4970317;28;20418;-72
2024/03/02 11:21:49;;;;;;;15.30;10.75;;;;;;;11.86;89.81;99220.47;4962255;28;20109;-70
2024/03/02 11:24:35;;;;;;;13.55;10.50;;;;;;;11.73;93.76;99230.22;4966429;28;20129;-69
2024/03/02 11:27:08;;;;;;;17.45;10.70;;;;;;;11.92;91.36;99222.72;4977874;28;20050;-72
2024/03/02 11:29:47;;;;;;;13.63;10.18;;;;;;;12.11;90.42;99214.28;4981597;28;20051;-70
2024/03/02 11:32:23;;;;;;;15.00;10.10;;;;;;;12.32;84.44;99217.19;4980510;28;20035;-68
2024/03/02 11:34:51;;;;;;;15.63;10.57;;;;;;;12.38;83.44;99220.25;4988629;28;20055;-71